sensor_id;sensor_type;location;lat;lon;timestamp;P1;durP1;ratioP1;P2;durP2;ratioP2
7398;SDS011;3740;50.700;7.184;2022-12-24T00:02:12;13.93;;;4.80;;
7398;SDS011;3740;50.700;7.184;2022-12-24T00:04:37;18.53;;;5.97;;
7398;SDS011;3740;50.700;7.184;2022-12-24T00:07:03;14.53;;;5.33;;
7398;SDS011;3740;50.700;7.184;2022-12-24T00:09:29;11.60;;;5.03;;
7398;SDS011;3740;50.700;7.184;2022-12-24T00:11:54;12.70;;;5.70;;
7398;SDS011;3740;50.700;7.184;2022-12-24T00:14:20;15.60;;;5.33;;
7398;SDS011;3740;50.700;7.184;2022-12-24T00:16:45;11.73;;;5.30;;
7398;SDS011;3740;50.700;7.184;2022-12-24T00:19:11;13.93;;;4.73;;
7398;SDS011;3740;50.700;7.184;2022-12-24T00:21:37;15.43;;;6.30;;
7398;SDS011;3740;50.700;7.184;2022-12-24T00:24:03;15.27;;;6.20;;
7398;SDS011;3740;50.700;7.184;2022-12-24T00:26:30;18.60;;;5.60;;
7398;SDS011;3740;50.700;7.184;2022-12-24T00:28:58;12.33;;;4.87;;
7398;SDS011;3740;50.700;7.184;2022-12-24T00:31:24;11.10;;;4.80;;
7398;SDS011;3740;50.700;7.184;2022-12-24T00:33:50;13.97;;;5.17;;
7398;SDS011;3740;50.700;7.184;2022-12-24T00:36:16;10.40;;;4.37;;
7398;SDS011;3740;50.700;7.184;2022-12-24T00:38:43;12.67;;;4.53;;
7398;SDS011;3740;50.700;7.184;2022-12-24T00:41:09;14.67;;;5.73;;
7398;SDS011;3740;50.700;7.184;2022-12-24T00:43:55;13.60;;;4.90;;
7398;SDS011;3740;50.700;7.184;2022-12-24T00:46:25;14.00;;;4.77;;
7398;SDS011;3740;50.700;7.184;2022-12-24T00:48:52;13.87;;;5.03;;
7398;SDS011;3740;50.700;7.184;2022-12-24T00:51:18;10.67;;;4.63;;
7398;SDS011;3740;50.700;7.184;2022-12-24T00:53:45;11.97;;;4.47;;
7398;SDS011;3740;50.700;7.184;2022-12-24T00:56:11;13.50;;;4.90;;
7398;SDS011;3740;50.700;7.184;2022-12-24T00:58:37;13.57;;;4.57;;
7398;SDS011;3740;50.700;7.184;2022-12-24T01:01:02;16.37;;;4.90;;
7398;SDS011;3740;50.700;7.184;2022-12-24T01:03:29;11.87;;;4.27;;
7398;SDS011;3740;50.700;7.184;2022-12-24T01:06:01;12.87;;;4.43;;
7398;SDS011;3740;50.700;7.184;2022-12-24T01:08:28;12.03;;;4.00;;
7398;SDS011;3740;50.700;7.184;2022-12-24T01:10:54;8.07;;;3.77;;
7398;SDS011;3740;50.700;7.184;2022-12-24T01:13:20;12.50;;;4.53;;
7398;SDS011;3740;50.700;7.184;2022-12-24T01:15:46;15.73;;;5.00;;
7398;SDS011;3740;50.700;7.184;2022-12-24T01:18:11;12.93;;;4.87;;
7398;SDS011;3740;50.700;7.184;2022-12-24T01:20:37;11.73;;;4.10;;
7398;SDS011;3740;50.700;7.184;2022-12-24T01:23:02;10.23;;;4.17;;
7398;SDS011;3740;50.700;7.184;2022-12-24T01:25:28;9.20;;;4.20;;
7398;SDS011;3740;50.700;7.184;2022-12-24T01:27:53;11.37;;;4.23;;
7398;SDS011;3740;50.700;7.184;2022-12-24T01:30:19;8.43;;;4.20;;
7398;SDS011;3740;50.700;7.184;2022-12-24T01:32:45;10.97;;;4.10;;
7398;SDS011;3740;50.700;7.184;2022-12-24T01:35:10;9.27;;;4.20;;
7398;SDS011;3740;50.700;7.184;2022-12-24T01:37:36;12.17;;;4.50;;
7398;SDS011;3740;50.700;7.184;2022-12-24T01:40:03;9.37;;;4.53;;
7398;SDS011;3740;50.700;7.184;2022-12-24T01:42:48;10.07;;;4.20;;
7398;SDS011;3740;50.700;7.184;2022-12-24T01:48:38;12.17;;;4.27;;
7398;SDS011;3740;50.700;7.184;2022-12-24T01:53:57;10.40;;;4.30;;
7398;SDS011;3740;50.700;7.184;2022-12-24T01:56:31;12.23;;;4.40;;
7398;SDS011;3740;50.700;7.184;2022-12-24T01:59:01;9.47;;;4.47;;
7398;SDS011;3740;50.700;7.184;2022-12-24T02:01:30;11.33;;;4.47;;
7398;SDS011;3740;50.700;7.184;2022-12-24T02:03:55;15.77;;;5.43;;
7398;SDS011;3740;50.700;7.184;2022-12-24T02:06:21;9.60;;;4.10;;
7398;SDS011;3740;50.700;7.184;2022-12-24T02:08:47;12.70;;;4.43;;
7398;SDS011;3740;50.700;7.184;2022-12-24T02:13:45;14.33;;;4.90;;
7398;SDS011;3740;50.700;7.184;2022-12-24T02:16:26;10.87;;;4.40;;
7398;SDS011;3740;50.700;7.184;2022-12-24T02:30:11;12.30;;;4.50;;
7398;SDS011;3740;50.700;7.184;2022-12-24T02:32:50;11.30;;;4.30;;
7398;SDS011;3740;50.700;7.184;2022-12-24T02:35:30;11.73;;;4.50;;
7398;SDS011;3740;50.700;7.184;2022-12-24T02:38:07;9.87;;;4.17;;
7398;SDS011;3740;50.700;7.184;2022-12-24T02:41:01;8.80;;;4.00;;
7398;SDS011;3740;50.700;7.184;2022-12-24T02:43:30;9.70;;;4.03;;
7398;SDS011;3740;50.700;7.184;2022-12-24T02:46:00;14.00;;;4.47;;
7398;SDS011;3740;50.700;7.184;2022-12-24T02:48:39;11.87;;;4.13;;
7398;SDS011;3740;50.700;7.184;2022-12-24T02:51:08;8.17;;;3.73;;
7398;SDS011;3740;50.700;7.184;2022-12-24T02:53:35;12.77;;;4.20;;
7398;SDS011;3740;50.700;7.184;2022-12-24T03:01:54;9.40;;;3.83;;
7398;SDS011;3740;50.700;7.184;2022-12-24T03:04:33;9.47;;;3.97;;
7398;SDS011;3740;50.700;7.184;2022-12-24T03:10:39;12.33;;;4.90;;
7398;SDS011;3740;50.700;7.184;2022-12-24T03:13:27;12.43;;;4.63;;
7398;SDS011;3740;50.700;7.184;2022-12-24T03:15:53;10.87;;;4.33;;
7398;SDS011;3740;50.700;7.184;2022-12-24T03:18:21;11.77;;;4.20;;
7398;SDS011;3740;50.700;7.184;2022-12-24T03:20:59;9.10;;;3.87;;
7398;SDS011;3740;50.700;7.184;2022-12-24T03:23:31;9.23;;;4.03;;
7398;SDS011;3740;50.700;7.184;2022-12-24T03:25:58;12.07;;;4.73;;
7398;SDS011;3740;50.700;7.184;2022-12-24T03:28:26;11.73;;;4.17;;
7398;SDS011;3740;50.700;7.184;2022-12-24T03:30:52;10.03;;;4.37;;
7398;SDS011;3740;50.700;7.184;2022-12-24T03:33:18;11.27;;;4.57;;
7398;SDS011;3740;50.700;7.184;2022-12-24T03:35:44;9.93;;;4.10;;
7398;SDS011;3740;50.700;7.184;2022-12-24T03:38:10;11.10;;;4.47;;
7398;SDS011;3740;50.700;7.184;2022-12-24T03:40:36;10.10;;;4.83;;
7398;SDS011;3740;50.700;7.184;2022-12-24T03:43:02;11.20;;;5.13;;
7398;SDS011;3740;50.700;7.184;2022-12-24T03:45:27;10.13;;;3.67;;
7398;SDS011;3740;50.700;7.184;2022-12-24T03:47:53;10.43;;;4.47;;
7398;SDS011;3740;50.700;7.184;2022-12-24T03:50:18;10.27;;;4.60;;
7398;SDS011;3740;50.700;7.184;2022-12-24T03:52:44;9.83;;;4.07;;
7398;SDS011;3740;50.700;7.184;2022-12-24T03:55:09;10.97;;;4.30;;
7398;SDS011;3740;50.700;7.184;2022-12-24T03:57:35;11.73;;;4.13;;
7398;SDS011;3740;50.700;7.184;2022-12-24T04:00:01;9.17;;;4.10;;
7398;SDS011;3740;50.700;7.184;2022-12-24T04:02:28;8.67;;;3.90;;
7398;SDS011;3740;50.700;7.184;2022-12-24T04:04:54;8.10;;;4.07;;
7398;SDS011;3740;50.700;7.184;2022-12-24T04:07:19;9.97;;;4.20;;
7398;SDS011;3740;50.700;7.184;2022-12-24T04:09:45;10.50;;;4.30;;
7398;SDS011;3740;50.700;7.184;2022-12-24T04:12:10;7.53;;;4.00;;
7398;SDS011;3740;50.700;7.184;2022-12-24T04:14:36;8.90;;;3.87;;
7398;SDS011;3740;50.700;7.184;2022-12-24T04:17:02;11.07;;;4.00;;
7398;SDS011;3740;50.700;7.184;2022-12-24T04:19:27;6.67;;;3.70;;
7398;SDS011;3740;50.700;7.184;2022-12-24T04:21:53;9.57;;;4.13;;
7398;SDS011;3740;50.700;7.184;2022-12-24T04:24:18;7.97;;;3.63;;
7398;SDS011;3740;50.700;7.184;2022-12-24T04:26:44;11.33;;;4.50;;
7398;SDS011;3740;50.700;7.184;2022-12-24T04:29:09;10.00;;;4.57;;
7398;SDS011;3740;50.700;7.184;2022-12-24T04:31:35;9.77;;;4.50;;
7398;SDS011;3740;50.700;7.184;2022-12-24T04:34:01;10.43;;;4.47;;
7398;SDS011;3740;50.700;7.184;2022-12-24T04:36:26;10.53;;;4.40;;
7398;SDS011;3740;50.700;7.184;2022-12-24T04:38:52;7.30;;;3.60;;
7398;SDS011;3740;50.700;7.184;2022-12-24T04:41:18;6.50;;;3.07;;
7398;SDS011;3740;50.700;7.184;2022-12-24T04:43:45;6.93;;;3.30;;
7398;SDS011;3740;50.700;7.184;2022-12-24T04:46:12;7.60;;;3.30;;
7398;SDS011;3740;50.700;7.184;2022-12-24T04:48:39;9.37;;;3.00;;
7398;SDS011;3740;50.700;7.184;2022-12-24T04:51:06;5.00;;;2.70;;
7398;SDS011;3740;50.700;7.184;2022-12-24T04:53:33;5.50;;;2.73;;
7398;SDS011;3740;50.700;7.184;2022-12-24T04:55:59;10.73;;;3.43;;
7398;SDS011;3740;50.700;7.184;2022-12-24T04:58:25;7.77;;;3.40;;
7398;SDS011;3740;50.700;7.184;2022-12-24T05:00:52;9.70;;;3.60;;
7398;SDS011;3740;50.700;7.184;2022-12-24T05:03:17;9.10;;;3.83;;
7398;SDS011;3740;50.700;7.184;2022-12-24T05:05:43;7.07;;;3.27;;
7398;SDS011;3740;50.700;7.184;2022-12-24T05:08:09;9.17;;;3.67;;
7398;SDS011;3740;50.700;7.184;2022-12-24T05:10:35;6.10;;;2.77;;
7398;SDS011;3740;50.700;7.184;2022-12-24T05:13:00;7.13;;;3.20;;
7398;SDS011;3740;50.700;7.184;2022-12-24T05:15:26;6.73;;;2.80;;
7398;SDS011;3740;50.700;7.184;2022-12-24T05:17:51;7.77;;;2.93;;
7398;SDS011;3740;50.700;7.184;2022-12-24T05:20:17;6.33;;;2.90;;
7398;SDS011;3740;50.700;7.184;2022-12-24T05:22:42;5.97;;;2.97;;
7398;SDS011;3740;50.700;7.184;2022-12-24T05:25:31;6.90;;;2.87;;
7398;SDS011;3740;50.700;7.184;2022-12-24T05:28:19;6.00;;;2.63;;
7398;SDS011;3740;50.700;7.184;2022-12-24T05:30:44;6.40;;;2.47;;
7398;SDS011;3740;50.700;7.184;2022-12-24T05:33:10;6.30;;;2.97;;
7398;SDS011;3740;50.700;7.184;2022-12-24T05:35:35;5.03;;;2.47;;
7398;SDS011;3740;50.700;7.184;2022-12-24T05:38:01;6.80;;;2.87;;
7398;SDS011;3740;50.700;7.184;2022-12-24T05:40:26;9.50;;;2.80;;
7398;SDS011;3740;50.700;7.184;2022-12-24T05:42:52;7.53;;;3.40;;
7398;SDS011;3740;50.700;7.184;2022-12-24T05:45:17;6.67;;;3.00;;
7398;SDS011;3740;50.700;7.184;2022-12-24T05:47:43;8.77;;;3.13;;
7398;SDS011;3740;50.700;7.184;2022-12-24T05:50:09;7.07;;;3.33;;
7398;SDS011;3740;50.700;7.184;2022-12-24T05:52:35;10.53;;;3.60;;
7398;SDS011;3740;50.700;7.184;2022-12-24T05:55:00;7.20;;;3.13;;
7398;SDS011;3740;50.700;7.184;2022-12-24T05:57:26;8.40;;;3.03;;
7398;SDS011;3740;50.700;7.184;2022-12-24T05:59:51;6.33;;;2.90;;
7398;SDS011;3740;50.700;7.184;2022-12-24T06:02:17;8.00;;;2.83;;
7398;SDS011;3740;50.700;7.184;2022-12-24T06:04:42;6.27;;;2.60;;
7398;SDS011;3740;50.700;7.184;2022-12-24T06:07:08;7.17;;;2.90;;
7398;SDS011;3740;50.700;7.184;2022-12-24T06:09:33;7.27;;;2.70;;
7398;SDS011;3740;50.700;7.184;2022-12-24T06:11:59;6.10;;;2.77;;
7398;SDS011;3740;50.700;7.184;2022-12-24T06:14:24;5.70;;;2.47;;
7398;SDS011;3740;50.700;7.184;2022-12-24T06:16:50;7.10;;;2.20;;
7398;SDS011;3740;50.700;7.184;2022-12-24T06:19:16;4.97;;;2.10;;
7398;SDS011;3740;50.700;7.184;2022-12-24T06:24:09;5.13;;;2.27;;
7398;SDS011;3740;50.700;7.184;2022-12-24T06:26:34;4.47;;;2.37;;
7398;SDS011;3740;50.700;7.184;2022-12-24T06:29:00;3.30;;;2.00;;
7398;SDS011;3740;50.700;7.184;2022-12-24T06:31:25;3.60;;;2.23;;
7398;SDS011;3740;50.700;7.184;2022-12-24T06:33:51;4.20;;;2.20;;
7398;SDS011;3740;50.700;7.184;2022-12-24T06:36:21;6.33;;;2.20;;
7398;SDS011;3740;50.700;7.184;2022-12-24T06:38:48;4.13;;;2.07;;
7398;SDS011;3740;50.700;7.184;2022-12-24T06:41:15;4.57;;;2.10;;
7398;SDS011;3740;50.700;7.184;2022-12-24T06:43:45;5.17;;;2.57;;
7398;SDS011;3740;50.700;7.184;2022-12-24T06:46:12;3.27;;;2.07;;
7398;SDS011;3740;50.700;7.184;2022-12-24T06:48:38;4.30;;;2.10;;
7398;SDS011;3740;50.700;7.184;2022-12-24T06:51:04;4.67;;;2.47;;
7398;SDS011;3740;50.700;7.184;2022-12-24T06:53:29;4.87;;;2.30;;
7398;SDS011;3740;50.700;7.184;2022-12-24T06:56:08;6.37;;;2.47;;
7398;SDS011;3740;50.700;7.184;2022-12-24T06:58:35;4.70;;;2.43;;
7398;SDS011;3740;50.700;7.184;2022-12-24T07:01:01;5.93;;;2.20;;
7398;SDS011;3740;50.700;7.184;2022-12-24T07:03:28;5.33;;;2.50;;
7398;SDS011;3740;50.700;7.184;2022-12-24T07:05:54;4.93;;;2.50;;
7398;SDS011;3740;50.700;7.184;2022-12-24T07:08:19;4.17;;;2.23;;
7398;SDS011;3740;50.700;7.184;2022-12-24T07:10:46;4.57;;;2.83;;
7398;SDS011;3740;50.700;7.184;2022-12-24T07:13:13;6.23;;;2.90;;
7398;SDS011;3740;50.700;7.184;2022-12-24T07:15:39;7.37;;;2.87;;
7398;SDS011;3740;50.700;7.184;2022-12-24T07:18:05;5.57;;;3.30;;
7398;SDS011;3740;50.700;7.184;2022-12-24T07:20:30;7.83;;;3.37;;
7398;SDS011;3740;50.700;7.184;2022-12-24T07:22:56;6.70;;;3.10;;
7398;SDS011;3740;50.700;7.184;2022-12-24T07:25:21;7.27;;;3.13;;
7398;SDS011;3740;50.700;7.184;2022-12-24T07:27:47;7.93;;;3.43;;
7398;SDS011;3740;50.700;7.184;2022-12-24T07:30:12;7.53;;;2.90;;
7398;SDS011;3740;50.700;7.184;2022-12-24T07:32:38;6.10;;;3.67;;
7398;SDS011;3740;50.700;7.184;2022-12-24T07:35:04;8.00;;;3.30;;
7398;SDS011;3740;50.700;7.184;2022-12-24T07:37:30;8.20;;;3.73;;
7398;SDS011;3740;50.700;7.184;2022-12-24T07:39:55;9.17;;;3.40;;
7398;SDS011;3740;50.700;7.184;2022-12-24T07:42:21;8.73;;;3.87;;
7398;SDS011;3740;50.700;7.184;2022-12-24T07:44:46;10.87;;;3.87;;
7398;SDS011;3740;50.700;7.184;2022-12-24T07:47:12;7.77;;;3.93;;
7398;SDS011;3740;50.700;7.184;2022-12-24T07:49:38;8.93;;;3.93;;
7398;SDS011;3740;50.700;7.184;2022-12-24T07:52:03;9.50;;;3.90;;
7398;SDS011;3740;50.700;7.184;2022-12-24T07:54:29;11.53;;;4.63;;
7398;SDS011;3740;50.700;7.184;2022-12-24T07:56:54;10.30;;;4.13;;
7398;SDS011;3740;50.700;7.184;2022-12-24T07:59:20;12.63;;;4.20;;
7398;SDS011;3740;50.700;7.184;2022-12-24T08:01:46;9.63;;;4.17;;
7398;SDS011;3740;50.700;7.184;2022-12-24T08:04:11;11.43;;;4.57;;
7398;SDS011;3740;50.700;7.184;2022-12-24T08:06:37;9.30;;;4.67;;
7398;SDS011;3740;50.700;7.184;2022-12-24T08:09:03;9.50;;;4.00;;
7398;SDS011;3740;50.700;7.184;2022-12-24T08:11:29;12.97;;;5.00;;
7398;SDS011;3740;50.700;7.184;2022-12-24T08:13:54;11.70;;;4.90;;
7398;SDS011;3740;50.700;7.184;2022-12-24T08:16:20;10.77;;;4.40;;
7398;SDS011;3740;50.700;7.184;2022-12-24T08:18:46;11.83;;;3.90;;
7398;SDS011;3740;50.700;7.184;2022-12-24T08:21:12;10.00;;;4.40;;
7398;SDS011;3740;50.700;7.184;2022-12-24T08:23:37;10.20;;;4.50;;
7398;SDS011;3740;50.700;7.184;2022-12-24T08:26:05;10.13;;;4.37;;
7398;SDS011;3740;50.700;7.184;2022-12-24T08:28:32;11.03;;;4.70;;
7398;SDS011;3740;50.700;7.184;2022-12-24T08:30:58;8.07;;;4.10;;
7398;SDS011;3740;50.700;7.184;2022-12-24T08:33:24;9.30;;;4.10;;
7398;SDS011;3740;50.700;7.184;2022-12-24T08:35:50;7.27;;;4.00;;
7398;SDS011;3740;50.700;7.184;2022-12-24T08:38:18;8.77;;;4.57;;
7398;SDS011;3740;50.700;7.184;2022-12-24T08:40:44;11.27;;;4.70;;
7398;SDS011;3740;50.700;7.184;2022-12-24T08:43:12;11.17;;;5.10;;
7398;SDS011;3740;50.700;7.184;2022-12-24T08:45:38;7.50;;;4.10;;
7398;SDS011;3740;50.700;7.184;2022-12-24T08:48:05;8.37;;;3.97;;
7398;SDS011;3740;50.700;7.184;2022-12-24T08:50:32;9.10;;;4.30;;
7398;SDS011;3740;50.700;7.184;2022-12-24T08:52:57;10.87;;;4.37;;
7398;SDS011;3740;50.700;7.184;2022-12-24T08:55:24;9.97;;;4.60;;
7398;SDS011;3740;50.700;7.184;2022-12-24T08:57:49;13.93;;;4.57;;
7398;SDS011;3740;50.700;7.184;2022-12-24T09:00:15;12.90;;;4.80;;
7398;SDS011;3740;50.700;7.184;2022-12-24T09:02:41;9.57;;;4.70;;
7398;SDS011;3740;50.700;7.184;2022-12-24T09:05:06;10.50;;;4.70;;
7398;SDS011;3740;50.700;7.184;2022-12-24T09:07:32;11.83;;;5.40;;
7398;SDS011;3740;50.700;7.184;2022-12-24T09:09:58;13.37;;;5.33;;
7398;SDS011;3740;50.700;7.184;2022-12-24T09:12:23;13.07;;;5.53;;
7398;SDS011;3740;50.700;7.184;2022-12-24T09:14:49;11.83;;;5.70;;
7398;SDS011;3740;50.700;7.184;2022-12-24T09:17:15;12.67;;;5.20;;
7398;SDS011;3740;50.700;7.184;2022-12-24T09:19:41;10.93;;;5.40;;
7398;SDS011;3740;50.700;7.184;2022-12-24T09:22:06;10.73;;;4.73;;
7398;SDS011;3740;50.700;7.184;2022-12-24T09:24:32;9.97;;;4.37;;
7398;SDS011;3740;50.700;7.184;2022-12-24T09:26:59;12.17;;;4.90;;
7398;SDS011;3740;50.700;7.184;2022-12-24T09:29:26;11.77;;;5.23;;
7398;SDS011;3740;50.700;7.184;2022-12-24T09:31:52;10.33;;;4.90;;
7398;SDS011;3740;50.700;7.184;2022-12-24T09:34:19;13.47;;;4.50;;
7398;SDS011;3740;50.700;7.184;2022-12-24T09:36:44;11.63;;;4.60;;
7398;SDS011;3740;50.700;7.184;2022-12-24T09:39:11;12.03;;;4.93;;
7398;SDS011;3740;50.700;7.184;2022-12-24T09:41:42;9.53;;;4.50;;
7398;SDS011;3740;50.700;7.184;2022-12-24T09:47:02;11.80;;;4.50;;
7398;SDS011;3740;50.700;7.184;2022-12-24T09:49:42;14.70;;;5.00;;
7398;SDS011;3740;50.700;7.184;2022-12-24T09:52:13;16.13;;;5.20;;
7398;SDS011;3740;50.700;7.184;2022-12-24T09:54:55;13.23;;;4.97;;
7398;SDS011;3740;50.700;7.184;2022-12-24T09:57:29;14.00;;;5.50;;
7398;SDS011;3740;50.700;7.184;2022-12-24T09:59:59;12.33;;;5.10;;
7398;SDS011;3740;50.700;7.184;2022-12-24T10:02:25;12.57;;;5.23;;
7398;SDS011;3740;50.700;7.184;2022-12-24T10:04:50;13.53;;;5.33;;
7398;SDS011;3740;50.700;7.184;2022-12-24T10:13:17;11.40;;;4.90;;
7398;SDS011;3740;50.700;7.184;2022-12-24T10:15:46;13.50;;;5.47;;
7398;SDS011;3740;50.700;7.184;2022-12-24T10:20:59;14.13;;;5.30;;
7398;SDS011;3740;50.700;7.184;2022-12-24T10:23:36;10.77;;;4.57;;
7398;SDS011;3740;50.700;7.184;2022-12-24T10:26:49;14.87;;;5.10;;
7398;SDS011;3740;50.700;7.184;2022-12-24T10:29:27;14.50;;;5.17;;
7398;SDS011;3740;50.700;7.184;2022-12-24T10:35:07;15.17;;;5.43;;
7398;SDS011;3740;50.700;7.184;2022-12-24T10:37:32;12.43;;;5.20;;
7398;SDS011;3740;50.700;7.184;2022-12-24T10:39:58;11.50;;;5.17;;
7398;SDS011;3740;50.700;7.184;2022-12-24T10:42:38;9.80;;;4.73;;
7398;SDS011;3740;50.700;7.184;2022-12-24T10:45:09;12.80;;;5.00;;
7398;SDS011;3740;50.700;7.184;2022-12-24T10:47:40;15.00;;;5.27;;
7398;SDS011;3740;50.700;7.184;2022-12-24T10:50:18;13.10;;;4.83;;
7398;SDS011;3740;50.700;7.184;2022-12-24T10:52:56;15.10;;;5.50;;
7398;SDS011;3740;50.700;7.184;2022-12-24T10:55:29;16.03;;;5.13;;
7398;SDS011;3740;50.700;7.184;2022-12-24T10:57:57;12.10;;;4.97;;
7398;SDS011;3740;50.700;7.184;2022-12-24T11:00:29;13.53;;;5.23;;
7398;SDS011;3740;50.700;7.184;2022-12-24T11:03:58;13.67;;;5.60;;
7398;SDS011;3740;50.700;7.184;2022-12-24T11:08:30;10.77;;;4.77;;
7398;SDS011;3740;50.700;7.184;2022-12-24T11:10:56;13.27;;;4.93;;
7398;SDS011;3740;50.700;7.184;2022-12-24T11:13:28;14.77;;;5.30;;
7398;SDS011;3740;50.700;7.184;2022-12-24T11:16:17;10.03;;;5.00;;
7398;SDS011;3740;50.700;7.184;2022-12-24T11:19:03;15.33;;;5.13;;
7398;SDS011;3740;50.700;7.184;2022-12-24T11:21:39;15.50;;;5.03;;
7398;SDS011;3740;50.700;7.184;2022-12-24T11:26:37;15.10;;;5.57;;
7398;SDS011;3740;50.700;7.184;2022-12-24T11:29:05;13.90;;;5.40;;
7398;SDS011;3740;50.700;7.184;2022-12-24T11:31:38;16.00;;;6.00;;
7398;SDS011;3740;50.700;7.184;2022-12-24T11:34:22;12.30;;;4.73;;
7398;SDS011;3740;50.700;7.184;2022-12-24T11:36:50;14.87;;;5.43;;
7398;SDS011;3740;50.700;7.184;2022-12-24T11:39:18;10.77;;;4.53;;
7398;SDS011;3740;50.700;7.184;2022-12-24T11:41:45;14.93;;;5.10;;
7398;SDS011;3740;50.700;7.184;2022-12-24T11:44:11;12.37;;;5.00;;
7398;SDS011;3740;50.700;7.184;2022-12-24T11:46:40;12.80;;;4.87;;
7398;SDS011;3740;50.700;7.184;2022-12-24T11:49:23;14.87;;;5.43;;
7398;SDS011;3740;50.700;7.184;2022-12-24T11:52:10;12.80;;;4.87;;
7398;SDS011;3740;50.700;7.184;2022-12-24T11:57:29;12.23;;;4.90;;
7398;SDS011;3740;50.700;7.184;2022-12-24T12:00:04;10.52;;;4.70;;
7398;SDS011;3740;50.700;7.184;2022-12-24T12:05:07;10.53;;;4.47;;
7398;SDS011;3740;50.700;7.184;2022-12-24T12:07:37;10.63;;;4.90;;
7398;SDS011;3740;50.700;7.184;2022-12-24T12:10:04;16.00;;;5.17;;
7398;SDS011;3740;50.700;7.184;2022-12-24T12:16:07;13.70;;;5.40;;
7398;SDS011;3740;50.700;7.184;2022-12-24T12:18:49;10.73;;;5.37;;
7398;SDS011;3740;50.700;7.184;2022-12-24T12:21:22;11.13;;;4.93;;
7398;SDS011;3740;50.700;7.184;2022-12-24T12:23:56;11.67;;;4.60;;
7398;SDS011;3740;50.700;7.184;2022-12-24T12:26:27;16.10;;;5.23;;
7398;SDS011;3740;50.700;7.184;2022-12-24T12:28:55;15.83;;;5.60;;
7398;SDS011;3740;50.700;7.184;2022-12-24T12:31:34;13.50;;;5.07;;
7398;SDS011;3740;50.700;7.184;2022-12-24T12:34:08;12.03;;;4.67;;
7398;SDS011;3740;50.700;7.184;2022-12-24T12:36:42;15.30;;;5.80;;
7398;SDS011;3740;50.700;7.184;2022-12-24T12:39:30;13.33;;;5.17;;
7398;SDS011;3740;50.700;7.184;2022-12-24T12:42:02;14.83;;;5.90;;
7398;SDS011;3740;50.700;7.184;2022-12-24T12:47:08;17.17;;;6.07;;
7398;SDS011;3740;50.700;7.184;2022-12-24T12:56:16;14.43;;;4.90;;
7398;SDS011;3740;50.700;7.184;2022-12-24T12:58:38;14.00;;;5.63;;
7398;SDS011;3740;50.700;7.184;2022-12-24T13:01:11;16.83;;;5.57;;
7398;SDS011;3740;50.700;7.184;2022-12-24T13:03:43;14.63;;;5.67;;
7398;SDS011;3740;50.700;7.184;2022-12-24T13:06:45;14.33;;;5.30;;
7398;SDS011;3740;50.700;7.184;2022-12-24T13:18:36;14.03;;;5.50;;
7398;SDS011;3740;50.700;7.184;2022-12-24T13:20:34;13.17;;;4.67;;
7398;SDS011;3740;50.700;7.184;2022-12-24T13:23:19;11.97;;;4.83;;
7398;SDS011;3740;50.700;7.184;2022-12-24T13:25:54;9.10;;;4.57;;
7398;SDS011;3740;50.700;7.184;2022-12-24T13:31:33;12.07;;;4.63;;
7398;SDS011;3740;50.700;7.184;2022-12-24T13:36:12;11.10;;;4.97;;
7398;SDS011;3740;50.700;7.184;2022-12-24T13:38:47;10.50;;;4.70;;
7398;SDS011;3740;50.700;7.184;2022-12-24T13:46:47;11.48;;;4.70;;
7398;SDS011;3740;50.700;7.184;2022-12-24T13:49:58;10.10;;;4.83;;
7398;SDS011;3740;50.700;7.184;2022-12-24T13:54:34;17.77;;;5.93;;
7398;SDS011;3740;50.700;7.184;2022-12-24T14:02:46;14.70;;;5.30;;
7398;SDS011;3740;50.700;7.184;2022-12-24T14:05:25;12.20;;;4.80;;
7398;SDS011;3740;50.700;7.184;2022-12-24T14:07:58;12.67;;;5.40;;
7398;SDS011;3740;50.700;7.184;2022-12-24T14:10:28;15.23;;;5.47;;
7398;SDS011;3740;50.700;7.184;2022-12-24T14:12:56;13.13;;;5.37;;
7398;SDS011;3740;50.700;7.184;2022-12-24T14:18:18;17.27;;;5.60;;
7398;SDS011;3740;50.700;7.184;2022-12-24T14:20:50;15.10;;;5.80;;
7398;SDS011;3740;50.700;7.184;2022-12-24T14:26:00;15.03;;;5.00;;
7398;SDS011;3740;50.700;7.184;2022-12-24T14:28:30;17.00;;;5.63;;
7398;SDS011;3740;50.700;7.184;2022-12-24T14:31:01;17.27;;;5.57;;
7398;SDS011;3740;50.700;7.184;2022-12-24T14:33:32;11.90;;;5.10;;
7398;SDS011;3740;50.700;7.184;2022-12-24T14:35:59;12.03;;;4.80;;
7398;SDS011;3740;50.700;7.184;2022-12-24T14:38:26;12.70;;;5.10;;
7398;SDS011;3740;50.700;7.184;2022-12-24T14:40:59;11.13;;;5.00;;
7398;SDS011;3740;50.700;7.184;2022-12-24T14:49:57;14.17;;;5.63;;
7398;SDS011;3740;50.700;7.184;2022-12-24T14:52:42;14.13;;;5.63;;
7398;SDS011;3740;50.700;7.184;2022-12-24T14:55:30;14.17;;;5.20;;
7398;SDS011;3740;50.700;7.184;2022-12-24T15:00:49;13.63;;;5.90;;
7398;SDS011;3740;50.700;7.184;2022-12-24T15:03:17;13.63;;;5.67;;
7398;SDS011;3740;50.700;7.184;2022-12-24T15:05:45;11.47;;;5.00;;
7398;SDS011;3740;50.700;7.184;2022-12-24T15:08:17;13.77;;;5.17;;
7398;SDS011;3740;50.700;7.184;2022-12-24T15:10:51;12.97;;;5.23;;
7398;SDS011;3740;50.700;7.184;2022-12-24T15:15:44;15.07;;;5.90;;
7398;SDS011;3740;50.700;7.184;2022-12-24T15:18:17;10.93;;;5.13;;
7398;SDS011;3740;50.700;7.184;2022-12-24T15:20:46;14.33;;;5.53;;
7398;SDS011;3740;50.700;7.184;2022-12-24T15:23:18;11.30;;;5.40;;
7398;SDS011;3740;50.700;7.184;2022-12-24T15:25:45;8.73;;;4.67;;
7398;SDS011;3740;50.700;7.184;2022-12-24T15:28:17;14.30;;;5.47;;
7398;SDS011;3740;50.700;7.184;2022-12-24T15:30:46;9.67;;;5.00;;
7398;SDS011;3740;50.700;7.184;2022-12-24T15:33:12;12.53;;;5.27;;
7398;SDS011;3740;50.700;7.184;2022-12-24T15:38:21;14.20;;;6.50;;
7398;SDS011;3740;50.700;7.184;2022-12-24T15:40:48;14.40;;;8.13;;
7398;SDS011;3740;50.700;7.184;2022-12-24T15:43:14;18.63;;;9.97;;
7398;SDS011;3740;50.700;7.184;2022-12-24T15:45:41;15.70;;;9.30;;
7398;SDS011;3740;50.700;7.184;2022-12-24T15:48:09;15.20;;;8.60;;
7398;SDS011;3740;50.700;7.184;2022-12-24T15:50:46;18.33;;;10.00;;
7398;SDS011;3740;50.700;7.184;2022-12-24T15:53:14;17.00;;;9.17;;
7398;SDS011;3740;50.700;7.184;2022-12-24T15:55:45;14.60;;;7.70;;
7398;SDS011;3740;50.700;7.184;2022-12-24T15:58:24;14.17;;;7.80;;
7398;SDS011;3740;50.700;7.184;2022-12-24T16:01:05;16.00;;;8.93;;
7398;SDS011;3740;50.700;7.184;2022-12-24T16:06:17;12.67;;;9.13;;
7398;SDS011;3740;50.700;7.184;2022-12-24T16:08:43;16.20;;;9.10;;
7398;SDS011;3740;50.700;7.184;2022-12-24T16:11:17;15.47;;;9.33;;
7398;SDS011;3740;50.700;7.184;2022-12-24T16:16:33;14.37;;;7.33;;
7398;SDS011;3740;50.700;7.184;2022-12-24T16:19:05;12.67;;;6.37;;
7398;SDS011;3740;50.700;7.184;2022-12-24T16:21:39;11.63;;;6.80;;
7398;SDS011;3740;50.700;7.184;2022-12-24T16:24:09;13.00;;;6.13;;
7398;SDS011;3740;50.700;7.184;2022-12-24T16:26:45;12.40;;;6.27;;
7398;SDS011;3740;50.700;7.184;2022-12-24T16:29:12;13.73;;;6.57;;
7398;SDS011;3740;50.700;7.184;2022-12-24T16:31:42;12.37;;;6.13;;
7398;SDS011;3740;50.700;7.184;2022-12-24T16:34:25;12.70;;;6.30;;
7398;SDS011;3740;50.700;7.184;2022-12-24T16:36:53;12.47;;;7.00;;
7398;SDS011;3740;50.700;7.184;2022-12-24T16:39:20;11.33;;;6.80;;
7398;SDS011;3740;50.700;7.184;2022-12-24T16:41:53;11.00;;;6.73;;
7398;SDS011;3740;50.700;7.184;2022-12-24T16:44:38;14.43;;;8.13;;
7398;SDS011;3740;50.700;7.184;2022-12-24T16:47:05;13.10;;;7.67;;
7398;SDS011;3740;50.700;7.184;2022-12-24T16:49:39;16.23;;;7.20;;
7398;SDS011;3740;50.700;7.184;2022-12-24T16:52:05;12.87;;;7.03;;
7398;SDS011;3740;50.700;7.184;2022-12-24T16:54:34;12.47;;;5.93;;
7398;SDS011;3740;50.700;7.184;2022-12-24T16:57:00;12.47;;;6.70;;
7398;SDS011;3740;50.700;7.184;2022-12-24T16:59:25;13.37;;;5.73;;
7398;SDS011;3740;50.700;7.184;2022-12-24T17:01:51;15.53;;;6.30;;
7398;SDS011;3740;50.700;7.184;2022-12-24T17:04:17;11.10;;;6.50;;
7398;SDS011;3740;50.700;7.184;2022-12-24T17:06:43;10.93;;;5.97;;
7398;SDS011;3740;50.700;7.184;2022-12-24T17:09:10;14.87;;;7.67;;
7398;SDS011;3740;50.700;7.184;2022-12-24T17:11:37;9.10;;;6.50;;
7398;SDS011;3740;50.700;7.184;2022-12-24T17:14:02;14.07;;;6.80;;
7398;SDS011;3740;50.700;7.184;2022-12-24T17:16:28;13.20;;;7.30;;
7398;SDS011;3740;50.700;7.184;2022-12-24T17:18:54;11.77;;;7.17;;
7398;SDS011;3740;50.700;7.184;2022-12-24T17:21:20;12.13;;;7.07;;